sensor_id;sensor_type;location;lat;lon;timestamp;pressure;altitude;pressure_sealevel;temperature;humidity
44839;BME280;30576;42.098;24.876;2022-11-24T00:00:17;98751.25;;;8.13;79.52
44839;BME280;30576;42.098;24.876;2022-11-24T00:02:42;98755.47;;;8.20;79.18
44839;BME280;30576;42.098;24.876;2022-11-24T00:05:07;98763.16;;;8.29;79.02
44839;BME280;30576;42.098;24.876;2022-11-24T00:07:33;98751.72;;;8.32;79.51
44839;BME280;30576;42.098;24.876;2022-11-24T00:09:58;98754.22;;;8.38;80.02
44839;BME280;30576;42.098;24.876;2022-11-24T00:12:23;98752.41;;;8.40;79.77
44839;BME280;30576;42.098;24.876;2022-11-24T00:14:49;98746.44;;;8.33;79.03
44839;BME280;30576;42.098;24.876;2022-11-24T00:17:14;98748.97;;;8.38;79.35
44839;BME280;30576;42.098;24.876;2022-11-24T00:19:39;98757.34;;;8.57;78.41
44839;BME280;30576;42.098;24.876;2022-11-24T00:22:05;98760.19;;;8.46;78.80
44839;BME280;30576;42.098;24.876;2022-11-24T00:24:31;98768.13;;;8.45;78.39
44839;BME280;30576;42.098;24.876;2022-11-24T00:26:56;98757.72;;;8.38;78.63
44839;BME280;30576;42.098;24.876;2022-11-24T00:29:21;98756.00;;;8.37;78.97
44839;BME280;30576;42.098;24.876;2022-11-24T00:31:47;98757.00;;;8.30;77.81
44839;BME280;30576;42.098;24.876;2022-11-24T00:34:12;98751.69;;;8.33;78.37
44839;BME280;30576;42.098;24.876;2022-11-24T00:36:38;98746.41;;;8.35;78.46
44839;BME280;30576;42.098;24.876;2022-11-24T00:39:05;98755.97;;;8.39;78.38
44839;BME280;30576;42.098;24.876;2022-11-24T00:41:31;98755.25;;;8.29;78.49
44839;BME280;30576;42.098;24.876;2022-11-24T00:43:56;98755.91;;;8.44;78.13
44839;BME280;30576;42.098;24.876;2022-11-24T00:46:23;98757.06;;;8.27;78.87
44839;BME280;30576;42.098;24.876;2022-11-24T00:48:49;98753.44;;;8.34;78.44
44839;BME280;30576;42.098;24.876;2022-11-24T00:51:15;98751.56;;;8.39;78.50
44839;BME280;30576;42.098;24.876;2022-11-24T00:53:40;98752.41;;;8.40;78.52
44839;BME280;30576;42.098;24.876;2022-11-24T00:56:06;98747.91;;;8.48;77.97
44839;BME280;30576;42.098;24.876;2022-11-24T00:58:32;98750.75;;;8.37;78.03
44839;BME280;30576;42.098;24.876;2022-11-24T01:01:02;98754.38;;;8.30;77.85
44839;BME280;30576;42.098;24.876;2022-11-24T01:03:28;98753.81;;;8.16;77.74
44839;BME280;30576;42.098;24.876;2022-11-24T01:05:53;98754.66;;;8.16;78.15
44839;BME280;30576;42.098;24.876;2022-11-24T01:08:19;98760.72;;;8.20;77.69
44839;BME280;30576;42.098;24.876;2022-11-24T01:10:44;98760.06;;;8.09;77.99
44839;BME280;30576;42.098;24.876;2022-11-24T01:13:09;98764.59;;;8.02;77.94
44839;BME280;30576;42.098;24.876;2022-11-24T01:15:36;98761.94;;;8.03;78.20
44839;BME280;30576;42.098;24.876;2022-11-24T01:18:02;98755.94;;;7.95;79.03
44839;BME280;30576;42.098;24.876;2022-11-24T01:20:28;98766.28;;;8.04;78.27
44839;BME280;30576;42.098;24.876;2022-11-24T01:22:54;98769.09;;;7.94;78.45
44839;BME280;30576;42.098;24.876;2022-11-24T01:25:19;98766.75;;;7.78;79.01
44839;BME280;30576;42.098;24.876;2022-11-24T01:27:45;98775.00;;;7.58;80.50
44839;BME280;30576;42.098;24.876;2022-11-24T01:30:10;98773.22;;;7.60;81.75
44839;BME280;30576;42.098;24.876;2022-11-24T01:32:35;98775.78;;;7.65;82.71
44839;BME280;30576;42.098;24.876;2022-11-24T01:35:04;98766.47;;;7.47;83.74
44839;BME280;30576;42.098;24.876;2022-11-24T01:37:30;98768.13;;;7.52;83.95
44839;BME280;30576;42.098;24.876;2022-11-24T01:39:55;98774.34;;;7.45;83.56
44839;BME280;30576;42.098;24.876;2022-11-24T01:42:21;98767.47;;;7.38;84.74
44839;BME280;30576;42.098;24.876;2022-11-24T01:44:47;98778.53;;;7.03;86.50
44839;BME280;30576;42.098;24.876;2022-11-24T01:49:47;98774.84;;;7.16;86.82
44839;BME280;30576;42.098;24.876;2022-11-24T01:52:46;98771.06;;;7.34;85.57
44839;BME280;30576;42.098;24.876;2022-11-24T01:55:08;98770.09;;;7.38;85.49
44839;BME280;30576;42.098;24.876;2022-11-24T01:57:36;98782.09;;;7.53;84.48
44839;BME280;30576;42.098;24.876;2022-11-24T02:00:09;98774.59;;;7.30;84.24
44839;BME280;30576;42.098;24.876;2022-11-24T02:02:35;98768.00;;;7.59;84.79
44839;BME280;30576;42.098;24.876;2022-11-24T02:05:02;98771.53;;;7.56;84.27
44839;BME280;30576;42.098;24.876;2022-11-24T02:07:29;98765.69;;;7.42;86.30
44839;BME280;30576;42.098;24.876;2022-11-24T02:09:55;98772.56;;;7.47;86.13
44839;BME280;30576;42.098;24.876;2022-11-24T02:12:23;98774.16;;;7.56;86.27
44839;BME280;30576;42.098;24.876;2022-11-24T02:14:49;98781.69;;;7.76;86.03
44839;BME280;30576;42.098;24.876;2022-11-24T02:17:14;98778.94;;;7.84;84.87
44839;BME280;30576;42.098;24.876;2022-11-24T02:19:42;98774.63;;;7.78;85.25
44839;BME280;30576;42.098;24.876;2022-11-24T02:22:17;98780.78;;;7.79;84.38
44839;BME280;30576;42.098;24.876;2022-11-24T02:24:46;98779.59;;;7.45;84.61
44839;BME280;30576;42.098;24.876;2022-11-24T02:27:14;98779.84;;;7.30;85.94
44839;BME280;30576;42.098;24.876;2022-11-24T02:29:39;98776.16;;;7.43;85.37
44839;BME280;30576;42.098;24.876;2022-11-24T02:32:05;98769.78;;;7.57;85.21
44839;BME280;30576;42.098;24.876;2022-11-24T02:34:31;98774.69;;;7.75;84.20
44839;BME280;30576;42.098;24.876;2022-11-24T02:36:56;98772.00;;;7.78;82.80
44839;BME280;30576;42.098;24.876;2022-11-24T02:39:22;98773.03;;;7.18;81.74
44839;BME280;30576;42.098;24.876;2022-11-24T02:41:57;98770.50;;;7.12;81.84
44839;BME280;30576;42.098;24.876;2022-11-24T02:44:23;98768.09;;;6.98;81.88
44839;BME280;30576;42.098;24.876;2022-11-24T02:47:02;98778.66;;;6.93;82.21
44839;BME280;30576;42.098;24.876;2022-11-24T02:49:27;98784.19;;;6.73;82.20
44839;BME280;30576;42.098;24.876;2022-11-24T02:51:52;98784.78;;;6.95;81.37
44839;BME280;30576;42.098;24.876;2022-11-24T02:54:18;98784.78;;;6.95;81.03
44839;BME280;30576;42.098;24.876;2022-11-24T02:56:43;98785.81;;;6.82;81.57
44839;BME280;30576;42.098;24.876;2022-11-24T02:59:08;98786.44;;;6.99;81.87
44839;BME280;30576;42.098;24.876;2022-11-24T03:01:34;98788.13;;;7.04;81.23
44839;BME280;30576;42.098;24.876;2022-11-24T03:03:59;98786.28;;;7.09;80.63
44839;BME280;30576;42.098;24.876;2022-11-24T03:06:24;98785.38;;;7.13;79.92
44839;BME280;30576;42.098;24.876;2022-11-24T03:08:50;98780.50;;;6.88;80.50
44839;BME280;30576;42.098;24.876;2022-11-24T03:11:15;98787.56;;;6.83;81.16
44839;BME280;30576;42.098;24.876;2022-11-24T03:13:40;98792.88;;;6.78;81.54
44839;BME280;30576;42.098;24.876;2022-11-24T03:16:09;98795.78;;;6.57;81.73
44839;BME280;30576;42.098;24.876;2022-11-24T03:18:34;98793.19;;;6.55;82.27
44839;BME280;30576;42.098;24.876;2022-11-24T03:20:59;98790.53;;;6.58;81.31
44839;BME280;30576;42.098;24.876;2022-11-24T03:23:25;98801.69;;;6.73;81.58
44839;BME280;30576;42.098;24.876;2022-11-24T03:25:50;98812.97;;;6.78;80.91
44839;BME280;30576;42.098;24.876;2022-11-24T03:28:15;98808.72;;;6.69;81.39
44839;BME280;30576;42.098;24.876;2022-11-24T03:30:41;98812.09;;;6.79;81.26
44839;BME280;30576;42.098;24.876;2022-11-24T03:33:06;98813.16;;;6.62;82.10
44839;BME280;30576;42.098;24.876;2022-11-24T03:35:31;98795.13;;;6.38;84.01
44839;BME280;30576;42.098;24.876;2022-11-24T03:37:57;98805.47;;;6.49;84.69
44839;BME280;30576;42.098;24.876;2022-11-24T03:40:22;98810.19;;;6.22;88.13
44839;BME280;30576;42.098;24.876;2022-11-24T03:42:47;98804.91;;;6.25;89.69
44839;BME280;30576;42.098;24.876;2022-11-24T03:45:13;98813.78;;;6.12;91.31
44839;BME280;30576;42.098;24.876;2022-11-24T03:47:38;98810.38;;;6.03;92.86
44839;BME280;30576;42.098;24.876;2022-11-24T03:50:04;98807.56;;;6.20;92.60
44839;BME280;30576;42.098;24.876;2022-11-24T03:52:29;98803.31;;;6.12;92.69
44839;BME280;30576;42.098;24.876;2022-11-24T03:54:55;98805.63;;;6.38;92.08
44839;BME280;30576;42.098;24.876;2022-11-24T03:57:20;98810.69;;;6.52;90.38
44839;BME280;30576;42.098;24.876;2022-11-24T03:59:45;98818.44;;;6.59;89.91
44839;BME280;30576;42.098;24.876;2022-11-24T04:02:11;98811.50;;;6.58;89.84
44839;BME280;30576;42.098;24.876;2022-11-24T04:04:36;98811.34;;;6.69;89.16
44839;BME280;30576;42.098;24.876;2022-11-24T04:07:01;98821.78;;;6.74;88.19
44839;BME280;30576;42.098;24.876;2022-11-24T04:09:27;98816.88;;;6.46;88.63
44839;BME280;30576;42.098;24.876;2022-11-24T04:11:52;98814.00;;;6.66;88.74
44839;BME280;30576;42.098;24.876;2022-11-24T04:14:36;98823.59;;;6.66;88.20
44839;BME280;30576;42.098;24.876;2022-11-24T04:17:02;98826.97;;;6.77;87.23
44839;BME280;30576;42.098;24.876;2022-11-24T04:19:28;98828.66;;;6.79;87.07
44839;BME280;30576;42.098;24.876;2022-11-24T04:21:53;98827.56;;;6.96;85.39
44839;BME280;30576;42.098;24.876;2022-11-24T04:24:18;98831.94;;;6.98;84.56
44839;BME280;30576;42.098;24.876;2022-11-24T04:26:44;98834.16;;;6.61;84.46
44839;BME280;30576;42.098;24.876;2022-11-24T04:29:09;98832.59;;;6.48;84.81
44839;BME280;30576;42.098;24.876;2022-11-24T04:31:34;98840.41;;;6.52;85.24
44839;BME280;30576;42.098;24.876;2022-11-24T04:34:00;98842.91;;;6.60;85.11
44839;BME280;30576;42.098;24.876;2022-11-24T04:36:25;98838.41;;;6.71;84.33
44839;BME280;30576;42.098;24.876;2022-11-24T04:38:51;98845.22;;;6.85;84.03
44839;BME280;30576;42.098;24.876;2022-11-24T04:41:17;98846.72;;;7.01;82.91
44839;BME280;30576;42.098;24.876;2022-11-24T04:43:42;98844.13;;;6.99;82.14
44839;BME280;30576;42.098;24.876;2022-11-24T04:46:09;98844.47;;;6.75;81.98
44839;BME280;30576;42.098;24.876;2022-11-24T04:48:34;98843.81;;;6.57;83.34
44839;BME280;30576;42.098;24.876;2022-11-24T04:51:03;98842.00;;;6.62;83.45
44839;BME280;30576;42.098;24.876;2022-11-24T04:53:28;98849.91;;;6.58;83.26
44839;BME280;30576;42.098;24.876;2022-11-24T04:55:53;98854.16;;;6.70;83.79
44839;BME280;30576;42.098;24.876;2022-11-24T04:58:19;98865.31;;;6.84;84.15
44839;BME280;30576;42.098;24.876;2022-11-24T05:00:44;98866.25;;;6.81;83.60
44839;BME280;30576;42.098;24.876;2022-11-24T05:03:09;98870.66;;;6.75;83.52
44839;BME280;30576;42.098;24.876;2022-11-24T05:05:35;98868.00;;;6.78;83.83
44839;BME280;30576;42.098;24.876;2022-11-24T05:08:00;98874.25;;;6.69;84.10
44839;BME280;30576;42.098;24.876;2022-11-24T05:10:25;98866.25;;;6.80;83.62
44839;BME280;30576;42.098;24.876;2022-11-24T05:13:04;98873.97;;;6.92;83.00
44839;BME280;30576;42.098;24.876;2022-11-24T05:15:29;98867.81;;;6.92;82.87
44839;BME280;30576;42.098;24.876;2022-11-24T05:17:55;98864.34;;;6.91;82.67
44839;BME280;30576;42.098;24.876;2022-11-24T05:20:21;98869.72;;;6.82;82.66
44839;BME280;30576;42.098;24.876;2022-11-24T05:23:02;98870.75;;;6.69;82.15
44839;BME280;30576;42.098;24.876;2022-11-24T05:25:28;98876.72;;;6.81;81.95
44839;BME280;30576;42.098;24.876;2022-11-24T05:27:53;98878.38;;;6.87;80.67
44839;BME280;30576;42.098;24.876;2022-11-24T05:30:18;98883.00;;;6.67;81.32
44839;BME280;30576;42.098;24.876;2022-11-24T05:32:43;98891.97;;;6.47;83.06
44839;BME280;30576;42.098;24.876;2022-11-24T05:35:09;98890.31;;;6.41;82.52
44839;BME280;30576;42.098;24.876;2022-11-24T05:37:34;98895.38;;;6.55;81.91
44839;BME280;30576;42.098;24.876;2022-11-24T05:39:59;98881.31;;;6.61;81.68
44839;BME280;30576;42.098;24.876;2022-11-24T05:42:25;98891.31;;;6.26;83.21
44839;BME280;30576;42.098;24.876;2022-11-24T05:45:06;98881.41;;;6.55;83.05
44839;BME280;30576;42.098;24.876;2022-11-24T05:47:33;98895.22;;;6.69;82.58
44839;BME280;30576;42.098;24.876;2022-11-24T05:49:58;98893.41;;;6.73;82.39
44839;BME280;30576;42.098;24.876;2022-11-24T05:52:23;98891.78;;;6.62;81.76
44839;BME280;30576;42.098;24.876;2022-11-24T05:54:49;98897.97;;;6.58;81.61
44839;BME280;30576;42.098;24.876;2022-11-24T05:57:15;98895.19;;;6.72;80.28
44839;BME280;30576;42.098;24.876;2022-11-24T05:59:41;98893.22;;;6.90;79.61
44839;BME280;30576;42.098;24.876;2022-11-24T06:02:06;98897.66;;;6.85;79.81
44839;BME280;30576;42.098;24.876;2022-11-24T06:04:31;98893.53;;;6.63;79.75
44839;BME280;30576;42.098;24.876;2022-11-24T06:06:57;98906.44;;;6.80;79.63
44839;BME280;30576;42.098;24.876;2022-11-24T06:09:22;98902.69;;;7.00;78.64
44839;BME280;30576;42.098;24.876;2022-11-24T06:11:47;98897.56;;;6.91;79.31
44839;BME280;30576;42.098;24.876;2022-11-24T06:14:13;98907.38;;;6.73;81.07
44839;BME280;30576;42.098;24.876;2022-11-24T06:16:38;98901.03;;;6.94;80.69
44839;BME280;30576;42.098;24.876;2022-11-24T06:19:04;98903.44;;;7.10;80.34
44839;BME280;30576;42.098;24.876;2022-11-24T06:21:29;98912.06;;;7.18;80.17
44839;BME280;30576;42.098;24.876;2022-11-24T06:23:54;98914.50;;;7.30;80.53
44839;BME280;30576;42.098;24.876;2022-11-24T06:26:20;98907.25;;;7.51;80.07
44839;BME280;30576;42.098;24.876;2022-11-24T06:28:45;98915.94;;;7.53;80.58
44839;BME280;30576;42.098;24.876;2022-11-24T06:31:10;98913.84;;;7.75;80.76
44839;BME280;30576;42.098;24.876;2022-11-24T06:33:36;98912.19;;;7.71;81.43
44839;BME280;30576;42.098;24.876;2022-11-24T06:36:05;98916.44;;;7.77;81.78
44839;BME280;30576;42.098;24.876;2022-11-24T06:38:31;98916.94;;;8.00;81.71
44839;BME280;30576;42.098;24.876;2022-11-24T06:40:57;98911.47;;;8.14;81.94
44839;BME280;30576;42.098;24.876;2022-11-24T06:43:23;98930.22;;;8.44;82.48
44839;BME280;30576;42.098;24.876;2022-11-24T06:45:50;98932.44;;;8.66;81.50
44839;BME280;30576;42.098;24.876;2022-11-24T06:48:15;98925.09;;;8.82;81.39
44839;BME280;30576;42.098;24.876;2022-11-24T06:50:41;98926.59;;;8.95;81.57
44839;BME280;30576;42.098;24.876;2022-11-24T06:53:06;98927.06;;;9.14;80.95
44839;BME280;30576;42.098;24.876;2022-11-24T06:55:32;98930.59;;;9.14;78.72
44839;BME280;30576;42.098;24.876;2022-11-24T06:57:57;98934.59;;;9.31;78.29
44839;BME280;30576;42.098;24.876;2022-11-24T07:00:22;98934.84;;;9.20;77.88
44839;BME280;30576;42.098;24.876;2022-11-24T07:02:47;98935.19;;;9.03;79.16
44839;BME280;30576;42.098;24.876;2022-11-24T07:05:13;98944.81;;;9.04;79.25
44839;BME280;30576;42.098;24.876;2022-11-24T07:07:38;98951.59;;;9.57;77.80
44839;BME280;30576;42.098;24.876;2022-11-24T07:10:03;98945.56;;;9.52;77.43
44839;BME280;30576;42.098;24.876;2022-11-24T07:12:32;98942.56;;;9.68;77.50
44839;BME280;30576;42.098;24.876;2022-11-24T07:14:57;98940.91;;;10.00;76.60
44839;BME280;30576;42.098;24.876;2022-11-24T07:17:23;98939.25;;;10.31;74.73
44839;BME280;30576;42.098;24.876;2022-11-24T07:19:48;98937.47;;;10.33;74.63
44839;BME280;30576;42.098;24.876;2022-11-24T07:22:13;98937.28;;;10.41;75.06
44839;BME280;30576;42.098;24.876;2022-11-24T07:24:39;98938.56;;;10.59;73.99
44839;BME280;30576;42.098;24.876;2022-11-24T07:27:04;98938.00;;;10.47;74.29
44839;BME280;30576;42.098;24.876;2022-11-24T07:29:29;98937.00;;;10.51;74.21
44839;BME280;30576;42.098;24.876;2022-11-24T07:31:54;98939.13;;;10.37;74.76
44839;BME280;30576;42.098;24.876;2022-11-24T07:34:20;98941.94;;;10.64;73.95
44839;BME280;30576;42.098;24.876;2022-11-24T07:36:45;98940.94;;;10.68;73.97
44839;BME280;30576;42.098;24.876;2022-11-24T07:39:10;98934.16;;;10.90;71.83
44839;BME280;30576;42.098;24.876;2022-11-24T07:41:37;98938.56;;;10.90;72.24
44839;BME280;30576;42.098;24.876;2022-11-24T07:44:02;98942.94;;;10.91;72.88
44839;BME280;30576;42.098;24.876;2022-11-24T07:46:27;98935.50;;;10.74;72.38
44839;BME280;30576;42.098;24.876;2022-11-24T07:48:53;98952.19;;;10.74;72.32
44839;BME280;30576;42.098;24.876;2022-11-24T07:51:18;98944.06;;;10.82;72.15
44839;BME280;30576;42.098;24.876;2022-11-24T07:53:44;98948.44;;;10.83;71.62
44839;BME280;30576;42.098;24.876;2022-11-24T07:56:09;98951.16;;;10.80;71.61
44839;BME280;30576;42.098;24.876;2022-11-24T07:58:35;98945.47;;;10.63;73.03
44839;BME280;30576;42.098;24.876;2022-11-24T08:01:14;98945.50;;;10.94;72.14
44839;BME280;30576;42.098;24.876;2022-11-24T08:03:40;98945.81;;;11.43;71.24
44839;BME280;30576;42.098;24.876;2022-11-24T08:06:05;98944.25;;;11.65;71.29
44839;BME280;30576;42.098;24.876;2022-11-24T08:08:31;98949.50;;;11.95;69.03
44839;BME280;30576;42.098;24.876;2022-11-24T08:11:03;98947.22;;;11.83;68.21
44839;BME280;30576;42.098;24.876;2022-11-24T08:13:28;98950.38;;;11.66;68.58
44839;BME280;30576;42.098;24.876;2022-11-24T08:15:54;98954.97;;;11.61;67.97
44839;BME280;30576;42.098;24.876;2022-11-24T08:18:19;98947.19;;;11.56;68.04
44839;BME280;30576;42.098;24.876;2022-11-24T08:20:46;98943.00;;;11.49;68.94
44839;BME280;30576;42.098;24.876;2022-11-24T08:23:11;98944.25;;;11.65;68.18
44839;BME280;30576;42.098;24.876;2022-11-24T08:25:37;98946.91;;;11.65;68.01
44839;BME280;30576;42.098;24.876;2022-11-24T08:28:02;98944.09;;;11.98;66.26
44839;BME280;30576;42.098;24.876;2022-11-24T08:30:28;98936.84;;;11.77;67.33
44839;BME280;30576;42.098;24.876;2022-11-24T08:32:53;98943.53;;;11.89;68.24
44839;BME280;30576;42.098;24.876;2022-11-24T08:35:19;98942.28;;;11.72;68.92
44839;BME280;30576;42.098;24.876;2022-11-24T08:37:44;98943.41;;;11.93;68.52
44839;BME280;30576;42.098;24.876;2022-11-24T08:40:10;98941.44;;;12.27;67.92
44839;BME280;30576;42.098;24.876;2022-11-24T08:42:35;98942.06;;;12.33;66.95
44839;BME280;30576;42.098;24.876;2022-11-24T08:45:01;98942.25;;;12.54;65.93
44839;BME280;30576;42.098;24.876;2022-11-24T08:47:26;98949.81;;;12.65;66.29
44839;BME280;30576;42.098;24.876;2022-11-24T08:49:51;98944.34;;;12.95;65.46
44839;BME280;30576;42.098;24.876;2022-11-24T08:52:16;98937.59;;;12.86;63.09
44839;BME280;30576;42.098;24.876;2022-11-24T08:54:42;98936.91;;;13.04;62.13
44839;BME280;30576;42.098;24.876;2022-11-24T08:57:12;98937.03;;;13.01;63.06
44839;BME280;30576;42.098;24.876;2022-11-24T08:59:53;98935.09;;;13.30;63.05
44839;BME280;30576;42.098;24.876;2022-11-24T09:02:19;98933.78;;;13.86;61.37
44839;BME280;30576;42.098;24.876;2022-11-24T09:04:44;98927.56;;;14.09;59.04
44839;BME280;30576;42.098;24.876;2022-11-24T09:07:09;98928.06;;;13.75;61.58
44839;BME280;30576;42.098;24.876;2022-11-24T09:09:35;98925.09;;;14.05;61.32
44839;BME280;30576;42.098;24.876;2022-11-24T09:12:00;98927.41;;;14.12;59.64
44839;BME280;30576;42.098;24.876;2022-11-24T09:14:25;98925.31;;;14.21;60.29
44839;BME280;30576;42.098;24.876;2022-11-24T09:16:50;98931.16;;;14.49;58.29
44839;BME280;30576;42.098;24.876;2022-11-24T09:19:16;98925.47;;;14.59;58.22
44839;BME280;30576;42.098;24.876;2022-11-24T09:21:41;98931.41;;;14.23;60.16
44839;BME280;30576;42.098;24.876;2022-11-24T09:24:06;98918.34;;;14.39;60.53
44839;BME280;30576;42.098;24.876;2022-11-24T09:26:33;98921.06;;;14.17;59.73
44839;BME280;30576;42.098;24.876;2022-11-24T09:28:59;98920.88;;;14.21;60.71
44839;BME280;30576;42.098;24.876;2022-11-24T09:31:25;98920.19;;;14.16;59.33
44839;BME280;30576;42.098;24.876;2022-11-24T09:33:51;98908.25;;;14.47;60.21
44839;BME280;30576;42.098;24.876;2022-11-24T09:36:17;98916.56;;;14.60;60.00
44839;BME280;30576;42.098;24.876;2022-11-24T09:38:43;98900.78;;;14.77;59.95
44839;BME280;30576;42.098;24.876;2022-11-24T09:46:16;98906.88;;;15.00;57.95
44839;BME280;30576;42.098;24.876;2022-11-24T09:48:45;98906.50;;;15.08;57.80
44839;BME280;30576;42.098;24.876;2022-11-24T09:51:12;98900.78;;;15.17;58.48
44839;BME280;30576;42.098;24.876;2022-11-24T09:53:40;98897.38;;;15.13;58.08
44839;BME280;30576;42.098;24.876;2022-11-24T09:56:17;98899.88;;;15.16;58.20
44839;BME280;30576;42.098;24.876;2022-11-24T09:58:48;98889.06;;;15.02;58.59
44839;BME280;30576;42.098;24.876;2022-11-24T10:03:41;98892.44;;;15.25;57.80
44839;BME280;30576;42.098;24.876;2022-11-24T10:11:14;98881.00;;;15.22;58.16
44839;BME280;30576;42.098;24.876;2022-11-24T10:13:44;98877.13;;;15.30;57.92
44839;BME280;30576;42.098;24.876;2022-11-24T10:18:41;98866.63;;;15.65;57.35
44839;BME280;30576;42.098;24.876;2022-11-24T10:21:25;98859.25;;;15.70;58.60
44839;BME280;30576;42.098;24.876;2022-11-24T10:26:36;98867.78;;;15.76;55.61
44839;BME280;30576;42.098;24.876;2022-11-24T10:29:47;98866.09;;;15.75;53.85
44839;BME280;30576;42.098;24.876;2022-11-24T10:31:52;98857.28;;;15.92;53.21
44839;BME280;30576;42.098;24.876;2022-11-24T10:34:21;98860.75;;;15.95;50.38
44839;BME280;30576;42.098;24.876;2022-11-24T10:39:34;98853.91;;;16.06;49.86
44839;BME280;30576;42.098;24.876;2022-11-24T10:44:29;98849.44;;;16.42;48.76
44839;BME280;30576;42.098;24.876;2022-11-24T10:46:54;98854.03;;;16.56;48.27
44839;BME280;30576;42.098;24.876;2022-11-24T10:49:24;98850.56;;;16.38;48.80
44839;BME280;30576;42.098;24.876;2022-11-24T10:54:26;98847.41;;;16.47;48.28
44839;BME280;30576;42.098;24.876;2022-11-24T10:56:52;98849.06;;;16.32;47.97
44839;BME280;30576;42.098;24.876;2022-11-24T10:59:24;98845.59;;;16.47;48.37
44839;BME280;30576;42.098;24.876;2022-11-24T11:01:52;98844.53;;;16.68;47.51
44839;BME280;30576;42.098;24.876;2022-11-24T11:04:25;98847.91;;;17.05;47.41
44839;BME280;30576;42.098;24.876;2022-11-24T11:06:50;98854.88;;;17.23;45.78
44839;BME280;30576;42.098;24.876;2022-11-24T11:09:17;98847.66;;;17.25;44.89
44839;BME280;30576;42.098;24.876;2022-11-24T11:11:43;98843.84;;;17.45;45.50
44839;BME280;30576;42.098;24.876;2022-11-24T11:14:11;98838.34;;;17.64;44.44
44839;BME280;30576;42.098;24.876;2022-11-24T11:16:43;98838.63;;;17.44;44.73
44839;BME280;30576;42.098;24.876;2022-11-24T11:21:59;98841.47;;;17.25;43.99
44839;BME280;30576;42.098;24.876;2022-11-24T11:24:25;98836.56;;;17.17;46.70
44839;BME280;30576;42.098;24.876;2022-11-24T11:26:57;98845.06;;;17.08;44.82
44839;BME280;30576;42.098;24.876;2022-11-24T11:29:23;98842.31;;;16.93;43.82
44839;BME280;30576;42.098;24.876;2022-11-24T11:32:01;98831.06;;;17.20;44.30
44839;BME280;30576;42.098;24.876;2022-11-24T11:34:28;98835.53;;;17.35;45.81
44839;BME280;30576;42.098;24.876;2022-11-24T11:36:56;98839.66;;;17.09;45.66
44839;BME280;30576;42.098;24.876;2022-11-24T11:39:30;98846.88;;;17.07;45.90
44839;BME280;30576;42.098;24.876;2022-11-24T11:44:41;98837.31;;;16.87;46.42
44839;BME280;30576;42.098;24.876;2022-11-24T11:47:19;98838.16;;;16.88;46.95
44839;BME280;30576;42.098;24.876;2022-11-24T11:49:47;98830.56;;;16.80;47.87
44839;BME280;30576;42.098;24.876;2022-11-24T11:52:26;98826.81;;;16.84;47.01
44839;BME280;30576;42.098;24.876;2022-11-24T12:00:27;98835.34;;;16.91;47.30
44839;BME280;30576;42.098;24.876;2022-11-24T12:05:33;98850.22;;;16.77;46.30
44839;BME280;30576;42.098;24.876;2022-11-24T12:08:08;98859.19;;;16.76;46.65
44839;BME280;30576;42.098;24.876;2022-11-24T12:10:54;98853.28;;;16.70;46.06
44839;BME280;30576;42.098;24.876;2022-11-24T12:13:45;98857.41;;;16.42;47.52
44839;BME280;30576;42.098;24.876;2022-11-24T12:22:23;98859.53;;;16.00;47.92
44839;BME280;30576;42.098;24.876;2022-11-24T12:27:03;98873.09;;;15.59;48.44
44839;BME280;30576;42.098;24.876;2022-11-24T12:37:30;98883.75;;;15.76;47.78
44839;BME280;30576;42.098;24.876;2022-11-24T12:43:16;98888.56;;;15.51;48.78
44839;BME280;30576;42.098;24.876;2022-11-24T12:45:21;98884.75;;;15.37;49.57
44839;BME280;30576;42.098;24.876;2022-11-24T12:50:25;98890.84;;;15.20;50.41
44839;BME280;30576;42.098;24.876;2022-11-24T12:55:17;98886.75;;;15.13;51.16
44839;BME280;30576;42.098;24.876;2022-11-24T12:58:08;98892.88;;;15.15;51.45
44839;BME280;30576;42.098;24.876;2022-11-24T13:03:25;98895.19;;;14.83;50.98
44839;BME280;30576;42.098;24.876;2022-11-24T13:05:56;98897.28;;;14.77;52.48
44839;BME280;30576;42.098;24.876;2022-11-24T13:26:25;98899.47;;;13.83;54.33
44839;BME280;30576;42.098;24.876;2022-11-24T13:29:00;98889.91;;;13.79;54.26
44839;BME280;30576;42.098;24.876;2022-11-24T13:31:29;98904.28;;;13.73;53.99
44839;BME280;30576;42.098;24.876;2022-11-24T13:33:55;98877.91;;;13.70;53.55
44839;BME280;30576;42.098;24.876;2022-11-24T13:49:22;98901.78;;;13.47;52.63
44839;BME280;30576;42.098;24.876;2022-11-24T13:51:52;98929.34;;;13.65;53.01
44839;BME280;30576;42.098;24.876;2022-11-24T13:54:20;98914.63;;;13.57;52.95
44839;BME280;30576;42.098;24.876;2022-11-24T13:56:46;98925.50;;;13.50;52.57
44839;BME280;30576;42.098;24.876;2022-11-24T13:59:15;98941.28;;;13.29;53.69
44839;BME280;30576;42.098;24.876;2022-11-24T14:01:43;98930.03;;;13.24;54.45
44839;BME280;30576;42.098;24.876;2022-11-24T14:14:39;98940.94;;;12.66;55.33
44839;BME280;30576;42.098;24.876;2022-11-24T14:17:27;98944.66;;;12.60;55.29
44839;BME280;30576;42.098;24.876;2022-11-24T14:19:54;98961.38;;;12.62;54.54
44839;BME280;30576;42.098;24.876;2022-11-24T14:24:56;98977.31;;;12.34;55.06
44839;BME280;30576;42.098;24.876;2022-11-24T14:27:48;98970.66;;;12.22;54.30
44839;BME280;30576;42.098;24.876;2022-11-24T14:32:39;98980.00;;;12.06;54.53
44839;BME280;30576;42.098;24.876;2022-11-24T14:35:42;98988.16;;;12.26;55.46
44839;BME280;30576;42.098;24.876;2022-11-24T14:38:10;98978.06;;;12.11;54.58
44839;BME280;30576;42.098;24.876;2022-11-24T14:40:42;98972.69;;;11.86;53.53
44839;BME280;30576;42.098;24.876;2022-11-24T14:43:29;98981.69;;;12.08;53.47
44839;BME280;30576;42.098;24.876;2022-11-24T14:46:03;98991.22;;;11.84;52.79
44839;BME280;30576;42.098;24.876;2022-11-24T14:48:37;98971.66;;;11.61;52.18
44839;BME280;30576;42.098;24.876;2022-11-24T14:51:17;98994.34;;;11.69;52.41